BTR - Baton Rouge Metro, Ryan Fld

Pirep is a free, collaborative database of all public and private airports located within the United States. All pilots are welcome to contribute, edit, and improve any airport they have local knowledge about, no registration required.
Are you familiar with this airport? Help out other pilots by adding your local knowledge.
Uploaded photos will be licensed under a CC BY-SA 4.0 license. Please only upload photos you have the rights to use.
Tags
Public
Undocu­mented
METAR / TAF
Edit Tags
Food
Camping
Lodging
Car Rental
Bicycles
Swimming
Golfing
Fishing
Hot Springs
Museum
Flying Clubs
Airpark
Upcoming Events
No upcoming events. Is anything happening here soon?
*
*
*

Where exactly on/near the airport is this event taking place?

Is there a webpage with more information for this event?

Who should be contacted for more information?

What is this event all about?

Repeat every
Description
Transient Parking
Fuel Location
Landing & Tie-down Fees
Crew Car Availability
Flying Clubs
WiFi Access
Airport Statistics
Location: Baton Rouge, LA
Elevation: 69ft
Sectional: Houston
Activation date: Jun 1942
Fuel: 100LL, A (prices)
Runway 04L/22R: 7,500ft
Runway 13/31: 7,005ft
Runway 04R/22L: 3,799ft
Access: Open to the public
Current Weather — VFR
  • Weather data is strictly informational and not for flight planning purposes.
  • METAR
    2024-05-24 19:53:00 CDT
    Ceiling Wind Temperature Dewpoint Weather Visbility
    Sky clear 190° @ 9kt 86°F 69°F N/A 10SM
    Raw: KBTR 250053Z 19009KT 10SM CLR 30/21 A2983 RMK AO2 SLP098 T03000211
  • TAF
    2024-05-24 19:00:00 CDT – 2024-05-25 04:00:00 CDT
    Ceiling Wind Weather Visbility
    Sky clear 210° @ 7kt N/A 6SM
    Clouds: Few @ 5,000ft, Few @ 25,000ft
    Raw: KBTR 242320Z 2500/2524 21007KT P6SM FEW050 FEW250 FM250900 VRB04KT P6SM BKN015 BKN050 FM251500 20006KT P6SM FEW045 SCT250
  • TAF
    2024-05-25 04:00:00 CDT – 2024-05-25 10:00:00 CDT
    Ceiling Wind Weather Visbility
    1,500ft Variable N/A 6SM
    Clouds: Broken @ 1,500ft, Broken @ 5,000ft
    Raw: KBTR 242320Z 2500/2524 21007KT P6SM FEW050 FEW250 FM250900 VRB04KT P6SM BKN015 BKN050 FM251500 20006KT P6SM FEW045 SCT250
  • TAF
    2024-05-25 10:00:00 CDT – 2024-05-25 19:00:00 CDT
    Ceiling Wind Weather Visbility
    Sky clear 200° @ 6kt N/A 6SM
    Clouds: Few @ 4,500ft, Scattered @ 25,000ft
    Raw: KBTR 242320Z 2500/2524 21007KT P6SM FEW050 FEW250 FM250900 VRB04KT P6SM BKN015 BKN050 FM251500 20006KT P6SM FEW045 SCT250
Click/tap to add an annotation marker to the map
Airport Webcams
No webcams added yet.
Direct links to live image URLs will be displayed inline on this page. URLs to separate webpages will be linked to.
URL:
Direct links to live image URLs will be displayed inline on this page. URLs to separate webpages will be linked to.
URL:
Remarks
  • 24 hrs ppr for unsked acr opns with more than 30 psgr seats 0000-0500 call amgr 225-355-2068/0333.
  • When atct clsd use freq 121.9 to ctc arff for emerg req.
  • Migratory birds on & invof arpt during months of mar/apr/sep & oct.
  • Twy m clsd indefly.
  • Twy e weight restrictions: single 44,000 lbs; dual 55,000 lbs; dual tandem 93,000 lbs.
Comments
Leave a comment What was your experience like at this airport?